METAR Data
IDs: Format: Raw Decoded Include TAF

Data at: 0259 UTC 18 Jun 2019

PAMD 180251Z AUTO 14009KT 10SM SCT013 OVC048 11/09 A2978 RMK AO2 SLP074 T01110089 51013
PAMD 180249Z AUTO 14009KT 10SM SCT013 OVC048 11/09 A2978 RMK AO2
PAMD 180237Z AUTO 13008KT 10SM BKN013 OVC050 11/09 A2977 RMK AO2
PAMD 180151Z AUTO 13008KT 10SM FEW025 BKN032 OVC048 11/09 A2977 RMK AO2 SLP071 T01110089
PAMD 180140Z AUTO 13007KT 10SM SCT025 OVC032 11/09 A2976 RMK AO2
PAMD 180138Z AUTO 14008KT 10SM BKN027 OVC032 11/09 A2976 RMK AO2
PAMD 180104Z AUTO 15010KT 10SM SCT010 BKN031 OVC041 11/09 A2975 RMK AO2
PAMD 180051Z AUTO 15010KT 10SM BKN012 OVC041 11/09 A2975 RMK AO2 SLP066 T01110089
PAMD 180028Z AUTO 15010KT 10SM BKN012 BKN038 OVC045 12/09 A2974 RMK AO2
PAMD 172359Z AUTO 14009KT 10SM FEW014 SCT020 OVC043 11/09 A2974 RMK AO2
PAMD 172351Z AUTO 13009KT 10SM FEW013 BKN021 OVC043 12/09 A2974 RMK AO2 RAE01 SLP061 P0000 60002 T01170089 10117 20100 51025
PAMD 172305Z AUTO 14014KT 10SM FEW008 BKN023 OVC034 11/09 A2972 RMK AO2 RAE01 P0000
PAMD 172251Z AUTO 15010KT 10SM -RA SCT011 BKN023 OVC036 11/09 A2971 RMK AO2 SLP053 P0000 T01110089
PAMD 172247Z AUTO 16011KT 10SM -RA SCT011 BKN018 OVC034 11/09 A2971 RMK AO2 P0000
PAMD 172240Z AUTO 15010KT 10SM -RA BKN011 BKN018 OVC034 11/09 A2971 RMK AO2 P0000
PAMD 172237Z AUTO 15009KT 10SM -RA SCT011 BKN018 OVC034 11/09 A2971 RMK AO2 P0000
PAMD 172228Z AUTO 16009KT 10SM -RA FEW011 BKN032 OVC050 11/09 A2971 RMK AO2 P0000
PAMD 172151Z AUTO 17010KT 10SM -RA SCT019 BKN026 BKN036 11/09 A2969 RMK AO2 RAB2058 SLP044 P0000 T01060089
PAMD 172134Z AUTO 18012KT 10SM SCT014 SCT019 BKN026 11/09 A2968 RMK AO2 RAB2058E32 P0000
PAMD 172130Z AUTO 17012KT 10SM -RA FEW007 BKN014 OVC026 11/09 A2968 RMK AO2 RAB2058 P0000
PAMD 172120Z AUTO 18010KT 10SM FEW007 BKN016 OVC023 11/10 A2968 RMK AO2 RAB2058E11 P0000
PAMD 172109Z AUTO 18010KT 10SM -RA SCT007 BKN012 OVC048 11/10 A2967 RMK AO2 RAB2058 P0000
PAMD 172100Z AUTO 18010KT 10SM -RA BKN007 BKN012 OVC048 11/11 A2967 RMK AO2 RAB2058 CIG 005V009 P0000
PAMD 172051Z AUTO 18011KT 10SM SCT007 BKN012 OVC048 11/10 A2966 RMK AO2 RAE12 SLP035 P0000 60002 T01060100 53026
PAMD 172048Z AUTO 19012KT 10SM SCT007 BKN012 OVC046 11/10 A2966 RMK AO2 RAE12 P0000
PAMD 172039Z AUTO 19011KT 10SM BKN007 OVC015 11/10 A2966 RMK AO2 RAE12 CIG 004V009 P0000
PAMD 172028Z AUTO 19010KT 9SM BKN005 OVC013 11/10 A2965 RMK AO2 RAE12 CIG 002V007 P0000
PAMD 171951Z AUTO 18012KT 5SM -RA BR OVC003 11/11 A2964 RMK AO2 RAB04 SLP026 P0001 T01060106
PAMD 171851Z AUTO 16009KT 6SM BR OVC003 11/11 A2960 RMK AO2 RAE51 SLP016 P0001 T01110111
PAMD 171821Z AUTO 18010KT 3SM BR OVC003 11/11 A2959 RMK AO2 RAE16 P0001
PAMD 171818Z AUTO 18010KT 1 1/4SM BR OVC003 11/11 A2959 RMK AO2 RAE16 P0001
PAMD 171816Z AUTO 17009KT 130V190 3/4SM BR OVC003 11/11 A2959 RMK AO2 RAE16 P0001
PAMD 171811Z AUTO 10009KT 1/2SM -RA FG OVC003 11/11 A2959 RMK AO2 P0001
PAMD 171751Z AUTO 09010KT 1/4SM -RA FG OVC003 11/11 A2958 RMK AO2 SLP009 P0001 60012 T01110111 10111 20100 53001
PAMD 171745Z AUTO 09011KT 1/4SM -RA FG OVC003 11/11 A2958 RMK AO2 P0001
PAMD 171736Z AUTO 09009KT 1/2SM -RA FG OVC003 11/11 A2958 RMK AO2 P0001
PAMD 171732Z AUTO 09011KT 3/4SM -RA BR OVC003 11/11 A2958 RMK AO2 P0001
PAMD 171724Z AUTO 09011KT 1SM -RA BR OVC003 11/11 A2958 RMK AO2 P0000
PAMD 171708Z AUTO 09011KT 1 3/4SM -RA BR OVC003 11/11 A2958 RMK AO2 P0000
PAMD 171703Z AUTO 08011KT 2SM -RA BR OVC003 11/11 A2958 RMK AO2 P0000
PAMD 171651Z AUTO 08012KT 3SM -RA BR OVC003 11/11 A2958 RMK AO2 SLP007 P0001 T01110106
PAMD 171641Z AUTO 08013KT 3SM -RA BR OVC003 11/11 A2958 RMK AO2 P0000
PAMD 171639Z AUTO 08012KT 2 1/2SM -RA BR OVC003 11/11 A2958 RMK AO2 P0000
PAMD 171636Z AUTO 08013KT 1 1/2SM -RA BR OVC003 11/11 A2958 RMK AO2 P0000
PAMD 171634Z AUTO 08013KT 1SM -RA BR OVC003 11/11 A2958 RMK AO2 P0000
PAMD 171622Z AUTO 08013KT 3/4SM -RA BR OVC003 11/11 A2958 RMK AO2 P0000
PAMD 171620Z AUTO 08013KT 1SM -RA BR OVC003 11/11 A2958 RMK AO2 P0000
PAMD 171607Z AUTO 08014KT 1 1/4SM -RA BR OVC003 11/11 A2958 RMK AO2 P0000
PAMD 171601Z AUTO 08013KT 1SM -RA BR OVC003 11/11 A2958 RMK AO2 P0000
PAMD 171551Z AUTO 08014KT 1 1/4SM -RA BR OVC003 11/11 A2958 RMK AO2 SLP007 P0002 T01110106
PAMD 171548Z AUTO 08015KT 3/4SM -RA BR OVC003 11/11 A2958 RMK AO2 P0002
PAMD 171541Z AUTO 08014KT 1/2SM -RA FG OVC003 11/11 A2958 RMK AO2 P0002
PAMD 171538Z AUTO 08012KT 3/4SM -RA BR OVC003 11/11 A2958 RMK AO2 P0002
PAMD 171535Z AUTO 08012KT 1SM -RA BR OVC003 11/11 A2958 RMK AO2 P0001
PAMD 171531Z AUTO 08013KT 1 1/2SM -RA BR OVC003 11/11 A2958 RMK AO2 P0001
PAMD 171527Z AUTO 08012KT 2SM -RA BR OVC003 11/11 A2958 RMK AO2 P0001
PAMD 171517Z AUTO 07012KT 1 3/4SM -RA BR OVC003 11/11 A2958 RMK AO2 P0001
PAMD 171507Z AUTO 07012KT 2 1/2SM -RA BR OVC003 11/11 A2958 RMK AO2 P0001
PAMD 171454Z AUTO 07013KT 3SM -RA BR OVC003 11/11 A2958 RMK AO2 P0000
PAMD 171451Z AUTO 07013KT 1 1/4SM -RA BR OVC003 11/11 A2958 RMK AO2 SLP008 P0002 60008 T01060106 56014
PAMD 171446Z AUTO 07013KT 1SM -RA BR OVC003 11/11 A2958 RMK AO2 P0002
PAMD 171443Z AUTO 07013KT 1 1/4SM -RA BR OVC003 11/11 A2958 RMK AO2 P0002
PAMD 171441Z AUTO 07014KT 2SM -RA BR OVC003 11/11 A2958 RMK AO2 P0002
PAMD 171434Z AUTO 07013KT 3SM -RA BR OVC003 11/11 A2958 RMK AO2 P0002
PAMD 171425Z AUTO 07013KT 2 1/2SM -RA BR OVC003 11/11 A2958 RMK AO2 P0002
PAMD 171403Z AUTO 07016KT 3SM -RA BR OVC003 11/11 A2958 RMK AO2 P0001
PAMD 171400Z AUTO 07017KT 2 1/2SM -RA BR OVC003 11/11 A2958 RMK AO2 P0001
PAMD 171351Z AUTO 07017KT 1 1/4SM -RA BR OVC003 11/11 A2959 RMK AO2 SLP010 P0005 T01060106
PAMD 171348Z AUTO 07015KT 1SM -RA BR OVC003 11/11 A2959 RMK AO2 P0005
PAMD 171332Z AUTO 06015KT 3/4SM -RA BR OVC003 11/11 A2959 RMK AO2 P0003
PAMD 171323Z AUTO 06016KT 1/2SM -RA FG OVC003 11/11 A2959 RMK AO2 P0002
PAMD 171251Z AUTO 04009KT 3/4SM -RA BR OVC003 11/10 A2961 RMK AO2 CIG 002V006 SLP016 P0001 T01060100
PAMD 171246Z AUTO 04008KT 3/4SM -RA BR OVC003 11/10 A2961 RMK AO2 CIG 002V006 P0000
PAMD 171241Z AUTO 04009KT 1SM -RA BR OVC003 11/10 A2961 RMK AO2 CIG 002V006 P0000
PAMD 171224Z AUTO 06011KT 3/4SM -RA BR BKN003 BKN022 OVC040 10/10 A2961 RMK AO2 CIG 002V007 P0000
PAMD 171222Z AUTO 06009KT 1SM -RA BR BKN003 BKN022 OVC040 10/10 A2961 RMK AO2 CIG 002V007 P0000
PAMD 171218Z AUTO 06010KT 1 1/2SM -RA BR BKN003 BKN022 OVC040 10/10 A2962 RMK AO2 CIG 002V007 P0000
PAMD 171215Z AUTO 07010KT 2SM -RA BR BKN003 BKN023 OVC040 10/10 A2962 RMK AO2 CIG 002V009 P0000
PAMD 171207Z AUTO 07011KT 2 1/2SM -RA BR BKN005 BKN012 OVC040 10/10 A2962 RMK AO2 VIS 1 3/4V5 CIG 002V009 P0000
PAMD 171151Z AUTO 07012KT 8SM -RA OVC007 10/10 A2962 RMK AO2 SLP022 P0001 60004 70004 T01000100 10106 20100 58017
PAMD 171111Z AUTO 08013KT 10SM -RA FEW003 BKN007 OVC015 11/10 A2963 RMK AO2 P0000
PAMD 171106Z AUTO 08012KT 8SM -RA FEW005 SCT009 OVC015 11/10 A2964 RMK AO2 P0000
PAMD 171056Z AUTO 08012KT 5SM -RA BR SCT005 OVC011 11/10 A2964 RMK AO2 P0000
PAMD 171051Z AUTO 08012KT 4SM -RA BR BKN005 OVC011 11/10 A2964 RMK AO2 RAE00B47 CIG 002V006 SLP028 P0000 T01060100
PAMD 171046Z AUTO 08014KT 5SM BR BKN005 BKN009 OVC014 11/10 A2964 RMK AO2 RAE00 P0000
PAMD 171041Z AUTO 08013KT 7SM SCT005 BKN011 OVC014 11/10 A2964 RMK AO2 RAE00 P0000
PAMD 171028Z AUTO 08010KT 8SM BKN005 BKN008 OVC013 10/10 A2965 RMK AO2 RAE00 P0000
PAMD 171020Z AUTO 08012KT 8SM BKN008 OVC016 11/10 A2965 RMK AO2 RAE00 CIG 004V014 P0000
PAMD 170951Z AUTO 08012KT 5SM -RA BR BKN005 OVC016 11/10 A2966 RMK AO2 RAE0859B30 CIG 003V009 SLP034 P0000 T01060100
PAMD 170851Z AUTO 08012KT 9SM -RA BKN007 OVC017 11/10 A2967 RMK AO2 SLP039 P0000 60003 T01060100 56014
PAMD 170815Z AUTO 08014KT 9SM -RA FEW006 OVC016 11/10 A2968 RMK AO2 P0000
PAMD 170810Z AUTO 08015KT 9SM -RA SCT008 BKN013 OVC018 11/11 A2968 RMK AO2 P0000
PAMD 170801Z AUTO 08013KT 9SM -RA SCT005 OVC015 11/11 A2968 RMK AO2 P0000
PAMD 170757Z AUTO 09013KT 9SM -RA SCT005 BKN014 OVC018 11/10 A2968 RMK AO2 P0000
PAMD 170751Z AUTO 08014G21KT 7SM -RA BKN005 OVC012 11/10 A2968 RMK AO2 CIG 003V009 SLP043 P0001 T01060100 401280094
PAMD 170746Z AUTO 08016KT 4SM -RA BR BKN005 OVC012 11/10 A2969 RMK AO2 CIG 003V010 P0001
PAMD 170735Z AUTO 08014KT 2 1/2SM -RA BR OVC005 11/11 A2968 RMK AO2 VIS 1 1/4V5 P0000
PAMD 170707Z AUTO 07014KT 9SM -RA BKN005 OVC008 11/11 A2969 RMK AO2 CIG 003V007 P0000
PAMD 170651Z AUTO 07016KT 6SM -RA BR BKN003 OVC012 11/11 A2970 RMK AO2 CIG 003V009 SLP047 P0002 T01060106
PAMD 170646Z AUTO 06016KT 5SM -RA BR BKN003 OVC007 11/11 A2970 RMK AO2 P0002
PAMD 170632Z AUTO 07017G22KT 8SM BKN005 OVC011 11/11 A2971 RMK AO2 RAE30 CIG 002V008 P0002
PAMD 170615Z AUTO 06019KT 3SM -RA BR OVC003 11/10 A2971 RMK AO2 P0002
PAMD 170608Z AUTO 06017G20KT 2 1/2SM -RA BR OVC003 11/10 A2971 RMK AO2 P0001
PAMD 170557Z AUTO 05012KT 1 1/4SM -RA BR BKN003 OVC006 11/10 A2971 RMK AO2 P0000
PAMD 170553Z AUTO 05012KT 1SM -RA BR BKN003 OVC006 11/10 A2971 RMK AO2 P0000
PAMD 170551Z AUTO 05012KT 1 1/4SM -RA BR BKN003 OVC006 11/10 A2971 RMK AO2 SLP053 P0000 60000 T01060100 10122 20100 58021
PAMD 170549Z AUTO 05012KT 1 1/4SM -RA BR BKN003 OVC006 11/10 A2971 RMK AO2 P0000
PAMD 170547Z AUTO 05013KT 1 1/4SM -RA BR OVC006 11/10 A2972 RMK AO2 CIG 002V010 P0000
PAMD 170545Z AUTO 05012KT 1 1/2SM -RA BR BKN003 OVC008 11/10 A2972 RMK AO2 CIG 002V006 P0000
PAMD 170542Z AUTO 05012KT 2SM -RA BR SCT003 OVC006 11/10 A2972 RMK AO2 CIG 006V010 P0000
PAMD 170529Z AUTO 05010KT 7SM -RA BKN008 OVC014 11/10 A2972 RMK AO2 CIG 006V011 P0000
PAMD 170527Z AUTO 04011KT 7SM -RA BKN010 OVC014 11/10 A2973 RMK AO2 CIG 006V013 P0000
PAMD 170525Z AUTO 04011KT 8SM -RA BKN008 OVC014 11/10 A2973 RMK AO2 CIG 006V010 P0000
PAMD 170459Z AUTO 07013KT 7SM -RA SCT009 BKN012 OVC042 11/09 A2973 RMK AO2 P0000
PAMD 170456Z AUTO 07012KT 8SM -RA BKN009 BKN014 OVC042 11/09 A2974 RMK AO2 CIG 007V011 P0000
PAMD 170454Z AUTO 07010KT 9SM -RA SCT011 BKN014 OVC044 11/09 A2974 RMK AO2 P0000
PAMD 170451Z AUTO 07011KT 9SM -RA SCT011 BKN029 OVC044 11/09 A2974 RMK AO2 RAB09E29B47 SLP062 P0000 T01060094
PAMD 170427Z AUTO 08010KT 10SM -RA FEW012 SCT019 OVC046 11/09 A2975 RMK AO2 RAB09 P0000
PAMD 170423Z AUTO 08013KT 10SM -RA FEW012 BKN019 OVC046 11/09 A2975 RMK AO2 RAB09 P0000
PAMD 170421Z AUTO 08012KT 10SM -RA BKN014 BKN022 OVC048 11/09 A2975 RMK AO2 RAB09 P0000
PAMD 170417Z AUTO 08012G16KT 10SM -RA BKN015 BKN025 OVC050 11/09 A2975 RMK AO2 RAB09 P0000
PAMD 170413Z AUTO 08012G16KT 10SM -RA BKN012 BKN021 OVC095 11/09 A2975 RMK AO2 RAB09 P0000
PAMD 170403Z AUTO 07008KT 10SM FEW016 BKN021 OVC095 11/09 A2976 RMK AO2
PAMD 170351Z AUTO 07010KT 10SM FEW018 BKN038 OVC095 11/09 A2976 RMK AO2 SLP069 T01060089
PAMD 170321Z AUTO 08011KT 10SM FEW013 SCT029 OVC036 11/09 A2977 RMK AO2
PAMD 170300Z AUTO 10011KT 10SM SCT014 BKN020 OVC038 10/09 A2977 RMK AO2
PAMD 170256Z AUTO 10012KT 10SM BKN014 BKN020 OVC029 10/09 A2978 RMK AO2
PAMD 170251Z AUTO 10013KT 10SM BKN017 OVC024 11/09 A2978 RMK AO2 SLP074 60000 T01060089 58017
PAMD 170228Z AUTO 10013KT 10SM SCT017 BKN022 OVC038 11/09 A2978 RMK AO2
PAMD 170201Z AUTO 09014KT 10SM SCT012 SCT019 OVC038 11/09 A2979 RMK AO2
PAMD 170151Z AUTO 09013KT 10SM SCT012 BKN019 OVC038 11/09 A2979 RMK AO2 RAB0057E10B28E49 SLP080 P0000 T01110094
PAMD 170142Z AUTO 09013KT 10SM -RA SCT012 BKN019 OVC030 11/09 A2980 RMK AO2 RAB0057E10B28 P0000
PAMD 170054Z AUTO 08014KT 9SM BKN014 OVC026 11/09 A2981 RMK AO2
PAMD 170051Z AUTO 08014KT 10SM SCT014 SCT018 OVC026 11/09 A2981 RMK AO2 SLP087 T01110089
PAMD 162351Z AUTO 07013KT 10SM BKN037 BKN047 12/09 A2983 RMK AO2 SLP091 T01220089 10128 20111 58005
PAMD 162251Z AUTO 10012KT 10SM SCT012 12/09 A2983 RMK AO2 SLP093 T01220089
PAMD 162151Z AUTO 10012KT 10SM SCT012 13/09 A2984 RMK AO2 SLP096 T01280094
PAMD 162051Z AUTO 10012KT 10SM SCT012 12/09 A2984 RMK AO2 SLP096 T01170089 53005
PAMD 161951Z AUTO 11010KT 10SM OVC042 12/09 A2983 RMK AO2 SLP093 T01170089
PAMD 161851Z AUTO 11010KT 10SM CLR 11/08 A2983 RMK AO2 SLP092 T01110083
PAMD 161751Z AUTO 13011KT 10SM CLR 11/08 A2983 RMK AO2 SLP092 60000 T01110083 10117 20094 53005
PAMD 161714Z AUTO 13009KT 10SM FEW010 SCT026 BKN050 11/09 A2982 RMK AO2
PAMD 161651Z AUTO 13008KT 10SM SCT010 BKN028 OVC035 11/09 A2982 RMK AO2 SLP090 T01060094
PAMD 161643Z AUTO 12008KT 10SM SCT008 BKN028 OVC035 11/09 A2982 RMK AO2
PAMD 161633Z AUTO 12008KT 10SM SCT010 BKN018 OVC035 11/09 A2982 RMK AO2
PAMD 161624Z AUTO 13007KT 10SM FEW008 SCT018 OVC035 11/09 A2982 RMK AO2
PAMD 161551Z AUTO 13006KT 10SM FEW006 BKN027 OVC055 11/10 A2982 RMK AO2 SLP087 T01060100
PAMD 161531Z AUTO 12005KT 10SM FEW007 OVC025 10/09 A2982 RMK AO2
PAMD 161510Z AUTO 12005KT 10SM BKN027 OVC042 11/09 A2982 RMK AO2